Time;durP1;ratioP1;P1;durP2;ratioP2;P2;SDS_P1;SDS_P2;PMS_P1;PMS_P2;Temp;Humidity;BMP_temperature;BMP_pressure;BME280_temperature;BME280_humidity;BME280_pressure;Samples;Min_cycle;Max_cycle;Signal;HPM_P1;HPM_P2
2023/05/15 00:00:53;;;;;;;7.13;6.53;;;15.30;99.90;;;;;;5033017;28;20195;-77
2023/05/15 00:03:21;;;;;;;8.25;6.68;;;15.10;99.90;;;;;;5034120;28;20202;-77
2023/05/15 00:05:49;;;;;;;7.35;6.60;;;15.40;99.90;;;;;;5034007;28;20215;-77
2023/05/15 00:08:17;;;;;;;6.65;6.00;;;15.30;99.90;;;;;;5034933;28;20199;-77
2023/05/15 00:10:44;;;;;;;7.13;6.43;;;15.40;99.90;;;;;;5031095;28;20200;-77
2023/05/15 00:13:12;;;;;;;8.15;7.28;;;15.30;99.90;;;;;;5034627;28;20207;-77
2023/05/15 00:15:39;;;;;;;6.80;6.20;;;15.40;99.90;;;;;;5034722;28;20211;-77
2023/05/15 00:18:06;;;;;;;7.53;6.82;;;15.40;99.90;;;;;;5028452;28;20206;-77
2023/05/15 00:20:35;;;;;;;7.28;6.57;;;15.30;99.90;;;;;;5029259;28;20204;-77
2023/05/15 00:23:03;;;;;;;7.53;6.82;;;15.50;99.90;;;;;;5032745;28;20203;-77
2023/05/15 00:25:30;;;;;;;7.32;6.40;;;15.40;99.90;;;;;;5026051;28;20208;-77
2023/05/15 00:27:58;;;;;;;8.40;7.60;;;15.20;99.90;;;;;;5029909;28;20221;-77
2023/05/15 00:30:25;;;;;;;7.50;6.80;;;15.20;99.90;;;;;;5031914;28;20207;-77
2023/05/15 00:32:53;;;;;;;9.57;8.65;;;15.20;99.90;;;;;;5033681;28;20238;-77
2023/05/15 00:35:20;;;;;;;7.90;7.28;;;15.30;99.90;;;;;;5034139;28;20654;-77
2023/05/15 00:37:49;;;;;;;8.75;7.20;;;15.40;99.90;;;;;;5034346;28;20219;-77
2023/05/15 00:40:21;;;;;;;9.52;8.07;;;15.30;99.90;;;;;;5030966;28;20210;-77
2023/05/15 00:42:49;;;;;;;10.27;8.00;;;15.50;99.90;;;;;;5031299;28;20196;-77
2023/05/15 00:45:19;;;;;;;8.93;8.13;;;15.50;99.90;;;;;;5033081;28;20206;-77
2023/05/15 00:47:49;;;;;;;8.35;7.65;;;15.30;99.90;;;;;;5050365;28;20256;-77
2023/05/15 00:50:18;;;;;;;8.65;7.35;;;15.30;99.90;;;;;;5033691;28;20567;-77
2023/05/15 00:52:46;;;;;;;8.60;7.85;;;15.30;99.90;;;;;;5034935;28;20210;-77
2023/05/15 00:55:15;;;;;;;10.73;9.73;;;15.40;99.90;;;;;;5036117;28;20199;-77
2023/05/15 00:57:44;;;;;;;9.40;8.10;;;15.20;99.90;;;;;;5035805;28;20226;-77
2023/05/15 01:00:15;;;;;;;9.05;8.25;;;15.10;99.90;;;;;;5048939;28;20211;-77
2023/05/15 01:02:43;;;;;;;9.18;8.27;;;15.20;99.90;;;;;;5047654;28;20209;-77
2023/05/15 01:05:10;;;;;;;11.10;8.98;;;15.20;99.90;;;;;;5034187;28;20191;-77
2023/05/15 01:07:45;;;;;;;9.85;8.75;;;15.00;99.90;;;;;;5034680;28;20223;-77
2023/05/15 01:10:16;;;;;;;11.32;10.18;;;15.00;99.90;;;;;;5030908;28;20198;-78
2023/05/15 01:12:46;;;;;;;14.07;12.68;;;15.00;99.90;;;;;;5032526;28;20199;-77
2023/05/15 01:15:13;;;;;;;13.65;12.32;;;15.00;99.90;;;;;;5017737;28;20470;-77
2023/05/15 01:17:41;;;;;;;11.52;10.52;;;15.00;99.90;;;;;;5034193;28;20230;-77
2023/05/15 01:20:12;;;;;;;12.93;11.73;;;15.10;99.90;;;;;;5034079;28;20195;-77
2023/05/15 01:22:59;;;;;;;12.63;10.82;;;15.10;99.90;;;;;;5030110;28;20203;-77
2023/05/15 01:26:03;;;;;;;13.23;11.13;;;15.00;99.90;;;;;;5028668;28;20202;-77
2023/05/15 01:28:37;;;;;;;11.35;10.25;;;15.00;99.90;;;;;;5034257;28;20206;-77
2023/05/15 01:31:14;;;;;;;11.00;9.77;;;15.00;99.90;;;;;;5032405;28;20210;-77
2023/05/15 01:33:45;;;;;;;12.45;11.10;;;14.90;99.90;;;;;;5036431;28;20217;-77
2023/05/15 01:36:18;;;;;;;14.77;13.13;;;14.90;99.90;;;;;;5031155;28;20219;-77
2023/05/15 01:38:50;;;;;;;13.70;12.43;;;14.90;99.90;;;;;;5050544;28;20652;-77
2023/05/15 01:41:23;;;;;;;12.07;10.88;;;15.00;99.90;;;;;;5032504;28;20657;-77
2023/05/15 01:43:59;;;;;;;13.95;11.98;;;15.00;99.90;;;;;;5034876;28;20538;-77
2023/05/15 01:46:30;;;;;;;13.52;11.75;;;14.90;99.90;;;;;;5031471;28;20226;-77
2023/05/15 01:49:00;;;;;;;13.30;11.98;;;14.80;99.90;;;;;;5033167;28;20195;-77
2023/05/15 01:51:29;;;;;;;13.75;12.45;;;14.80;99.90;;;;;;5020631;28;20199;-77
2023/05/15 01:53:58;;;;;;;14.52;12.57;;;14.80;99.90;;;;;;5033330;28;20230;-77
2023/05/15 01:56:27;;;;;;;15.18;12.43;;;15.00;99.90;;;;;;5026542;28;20709;-77
2023/05/15 01:58:58;;;;;;;13.27;11.85;;;14.90;99.90;;;;;;5031173;28;20195;-77
2023/05/15 02:01:27;;;;;;;13.07;11.77;;;15.00;99.90;;;;;;5033636;28;20197;-77
2023/05/15 02:03:55;;;;;;;13.35;12.05;;;15.00;99.90;;;;;;5030350;28;20209;-77
2023/05/15 02:06:24;;;;;;;13.80;12.32;;;14.80;99.90;;;;;;5028154;28;20215;-77
2023/05/15 02:08:54;;;;;;;16.90;14.18;;;14.70;99.90;;;;;;5033191;28;20211;-77
2023/05/15 02:11:22;;;;;;;14.68;13.27;;;14.60;99.90;;;;;;5032901;28;20199;-77
2023/05/15 02:13:50;;;;;;;14.35;12.85;;;14.70;99.90;;;;;;5032662;28;20223;-77
2023/05/15 02:16:19;;;;;;;14.52;13.00;;;14.70;99.90;;;;;;5033109;28;20231;-77
2023/05/15 02:18:46;;;;;;;17.35;15.02;;;14.60;99.90;;;;;;5031572;28;20211;-77
2023/05/15 02:21:15;;;;;;;20.15;15.93;;;14.60;99.90;;;;;;5030426;28;20191;-77
2023/05/15 02:23:43;;;;;;;17.45;15.75;;;14.50;99.90;;;;;;5033128;28;20206;-77
2023/05/15 02:26:21;;;;;;;16.50;13.80;;;14.70;99.90;;;;;;5020586;28;20234;-77
2023/05/15 02:28:59;;;;;;;17.65;15.48;;;14.70;99.90;;;;;;5036604;28;20200;-77
2023/05/15 02:31:39;;;;;;;17.08;14.85;;;14.50;99.90;;;;;;5029654;28;20199;-77
2023/05/15 02:34:16;;;;;;;15.30;13.80;;;14.70;99.90;;;;;;5030283;28;20203;-77
2023/05/15 02:36:47;;;;;;;16.00;14.35;;;14.60;99.90;;;;;;5027029;28;20218;-77
2023/05/15 02:39:18;;;;;;;17.13;14.98;;;14.50;99.90;;;;;;5030038;28;20672;-77
2023/05/15 02:41:46;;;;;;;16.90;14.50;;;14.60;99.90;;;;;;5030456;28;20204;-77
2023/05/15 02:44:18;;;;;;;15.52;13.82;;;14.60;99.90;;;;;;5032921;28;20657;-77
2023/05/15 02:46:47;;;;;;;16.65;15.00;;;14.50;99.90;;;;;;5035184;28;20231;-77
2023/05/15 02:49:15;;;;;;;17.40;15.57;;;14.60;99.90;;;;;;5044620;28;20215;-77
2023/05/15 02:51:43;;;;;;;18.92;15.73;;;14.40;99.90;;;;;;5035535;28;20209;-77
2023/05/15 02:54:11;;;;;;;18.20;15.38;;;14.50;99.90;;;;;;5037042;28;20216;-77
2023/05/15 02:56:39;;;;;;;21.67;17.33;;;14.60;99.90;;;;;;5020175;28;20242;-77
2023/05/15 02:59:06;;;;;;;19.63;17.08;;;14.60;99.90;;;;;;5027756;28;20211;-77
2023/05/15 03:01:34;;;;;;;20.17;17.17;;;14.80;99.90;;;;;;5034321;28;20215;-77
2023/05/15 03:04:02;;;;;;;20.42;18.05;;;14.90;99.90;;;;;;5034648;28;20744;-77
2023/05/15 03:06:30;;;;;;;20.15;16.48;;;14.60;99.90;;;;;;5030142;28;20220;-77
2023/05/15 03:08:57;;;;;;;22.92;18.60;;;14.70;99.90;;;;;;5030856;28;20208;-77
2023/05/15 03:11:25;;;;;;;21.58;18.23;;;14.70;99.90;;;;;;5033939;28;20194;-77
2023/05/15 03:13:52;;;;;;;22.20;19.83;;;14.60;99.90;;;;;;5036011;28;20195;-77
2023/05/15 03:16:20;;;;;;;24.27;19.90;;;14.80;99.90;;;;;;5031987;28;20222;-77
2023/05/15 03:18:47;;;;;;;26.90;22.08;;;14.90;99.90;;;;;;5034661;28;20195;-77
2023/05/15 03:21:16;;;;;;;27.23;21.25;;;14.80;99.90;;;;;;5031037;28;20214;-77
2023/05/15 03:23:44;;;;;;;33.92;26.02;;;14.90;99.90;;;;;;5034094;28;20210;-77
2023/05/15 03:26:11;;;;;;;35.05;26.60;;;14.90;99.90;;;;;;5030565;28;20211;-77
2023/05/15 03:28:39;;;;;;;32.83;25.58;;;14.80;99.90;;;;;;5035338;28;20211;-78
2023/05/15 03:31:07;;;;;;;36.50;27.48;;;14.90;99.90;;;;;;5031173;28;20264;-77
2023/05/15 03:33:34;;;;;;;35.40;28.83;;;14.80;99.90;;;;;;5032080;28;20214;-77
2023/05/15 03:36:02;;;;;;;36.42;27.92;;;14.90;99.90;;;;;;5034227;28;20221;-77
2023/05/15 03:38:31;;;;;;;43.08;31.52;;;15.00;99.90;;;;;;5036870;28;20198;-77
2023/05/15 03:40:58;;;;;;;41.53;29.05;;;15.00;99.90;;;;;;5031680;28;20396;-77
2023/05/15 03:43:26;;;;;;;44.08;32.55;;;14.90;99.90;;;;;;5026953;28;20195;-77
2023/05/15 03:45:54;;;;;;;40.65;30.83;;;14.80;99.90;;;;;;5031528;28;20227;-77
2023/05/15 03:48:21;;;;;;;42.08;31.35;;;14.80;99.90;;;;;;5033223;28;20206;-77
2023/05/15 03:50:49;;;;;;;49.10;34.63;;;14.80;99.90;;;;;;5031970;28;20210;-77
2023/05/15 03:53:16;;;;;;;47.00;33.25;;;14.70;99.90;;;;;;5033834;28;20218;-77
2023/05/15 03:55:45;;;;;;;48.78;35.28;;;14.60;99.90;;;;;;5029981;28;20223;-77
2023/05/15 03:58:13;;;;;;;44.42;32.50;;;14.60;99.90;;;;;;5032573;28;20681;-77
2023/05/15 04:00:40;;;;;;;44.85;33.17;;;14.80;99.90;;;;;;5025881;28;20218;-77
2023/05/15 04:03:08;;;;;;;49.55;34.58;;;14.80;99.90;;;;;;5030908;28;20210;-76
2023/05/15 04:05:35;;;;;;;53.72;36.25;;;14.70;99.90;;;;;;5034492;28;20199;-76
2023/05/15 04:08:03;;;;;;;51.45;36.53;;;14.40;99.90;;;;;;5032962;28;20274;-76
2023/05/15 04:10:31;;;;;;;51.08;35.42;;;14.50;99.90;;;;;;5030746;28;20206;-76
2023/05/15 04:13:00;;;;;;;57.08;38.40;;;14.40;99.90;;;;;;5033350;28;20202;-76
2023/05/15 04:15:27;;;;;;;56.25;38.05;;;14.20;99.90;;;;;;5025554;28;20446;-76
2023/05/15 04:17:55;;;;;;;60.13;37.55;;;14.20;99.90;;;;;;5029850;28;20200;-76
2023/05/15 04:20:24;;;;;;;60.92;39.90;;;14.20;99.90;;;;;;5034027;28;20194;-76
2023/05/15 04:22:53;;;;;;;62.10;40.58;;;14.20;99.90;;;;;;5026849;28;20203;-76
2023/05/15 04:25:20;;;;;;;65.20;42.63;;;14.10;99.90;;;;;;5028888;28;20195;-76
2023/05/15 04:27:49;;;;;;;61.60;39.72;;;14.00;99.90;;;;;;5028937;28;20242;-76
2023/05/15 04:30:17;;;;;;;67.55;43.97;;;14.10;99.90;;;;;;5030486;28;20199;-76
2023/05/15 04:32:45;;;;;;;67.65;44.03;;;14.30;99.90;;;;;;5029920;28;20214;-76
2023/05/15 04:35:14;;;;;;;87.70;50.88;;;14.10;99.90;;;;;;5027153;28;20215;-76
2023/05/15 04:37:44;;;;;;;93.03;52.95;;;13.90;99.90;;;;;;5028664;28;20223;-76
2023/05/15 04:40:13;;;;;;;83.65;50.70;;;13.80;99.90;;;;;;5023653;28;20213;-76
2023/05/15 04:42:41;;;;;;;77.97;48.83;;;13.80;99.90;;;;;;5031782;28;20203;-76
2023/05/15 04:45:09;;;;;;;86.65;50.95;;;13.90;99.90;;;;;;5026692;28;20214;-76
2023/05/15 04:47:38;;;;;;;81.25;50.17;;;13.80;99.90;;;;;;5031229;28;20222;-76
2023/05/15 04:50:07;;;;;;;81.53;50.30;;;13.80;99.90;;;;;;5027397;28;20203;-76
2023/05/15 04:52:35;;;;;;;82.05;51.22;;;14.00;99.90;;;;;;5029807;28;20776;-76
2023/05/15 04:55:03;;;;;;;83.63;50.50;;;13.90;99.90;;;;;;5041285;28;20215;-76
2023/05/15 04:57:31;;;;;;;82.32;50.72;;;14.10;99.90;;;;;;5026087;28;20231;-76
2023/05/15 04:59:58;;;;;;;83.10;50.22;;;14.10;99.90;;;;;;5023425;28;20203;-76
2023/05/15 05:02:26;;;;;;;89.65;52.30;;;14.20;99.90;;;;;;5028376;28;20205;-76
2023/05/15 05:04:55;;;;;;;85.93;52.60;;;14.20;99.90;;;;;;5028896;28;20203;-76
2023/05/15 05:07:22;;;;;;;81.53;49.42;;;14.10;99.90;;;;;;5028755;28;20681;-76
2023/05/15 05:09:50;;;;;;;85.90;50.08;;;14.00;99.90;;;;;;5025719;28;20210;-76
2023/05/15 05:12:45;;;;;;;80.47;49.70;;;14.00;99.90;;;;;;5027807;28;20203;-76
2023/05/15 05:15:13;;;;;;;83.75;48.85;;;14.00;99.90;;;;;;5025104;28;21284;-76
2023/05/15 05:17:40;;;;;;;86.30;49.83;;;13.70;99.90;;;;;;5045910;28;20709;-76
2023/05/15 05:20:12;;;;;;;79.80;48.63;;;13.70;99.90;;;;;;5022975;28;20572;-76
2023/05/15 05:22:41;;;;;;;82.03;47.95;;;13.80;99.90;;;;;;5027033;28;20214;-76
2023/05/15 05:25:09;;;;;;;78.72;49.90;;;13.60;99.90;;;;;;5045149;28;20199;-76
2023/05/15 05:27:37;;;;;;;84.00;49.17;;;13.30;99.90;;;;;;5043244;28;20226;-76
2023/05/15 05:30:05;;;;;;;80.32;50.00;;;13.50;99.90;;;;;;5030955;28;20195;-76
2023/05/15 05:32:44;;;;;;;81.20;48.75;;;13.40;99.90;;;;;;5032128;28;20210;-76
2023/05/15 05:35:13;;;;;;;83.30;52.00;;;13.20;99.90;;;;;;5033677;28;20199;-76
2023/05/15 05:37:50;;;;;;;93.72;54.85;;;13.10;99.90;;;;;;5025744;28;20245;-76
2023/05/15 05:40:23;;;;;;;89.70;52.72;;;13.00;99.90;;;;;;5026982;28;20194;-76
2023/05/15 05:42:52;;;;;;;82.85;51.58;;;13.10;99.90;;;;;;5034034;28;20199;-77
2023/05/15 05:45:20;;;;;;;91.55;52.97;;;13.30;99.90;;;;;;5032891;28;20198;-76
2023/05/15 05:47:47;;;;;;;88.63;51.92;;;13.50;99.90;;;;;;5050547;28;20227;-76
2023/05/15 05:50:17;;;;;;;94.47;53.20;;;13.40;99.90;;;;;;5027738;28;20223;-76
2023/05/15 05:52:44;;;;;;;91.60;52.42;;;13.40;99.90;;;;;;5032111;28;20210;-76
2023/05/15 05:55:12;;;;;;;95.93;52.13;;;13.50;99.90;;;;;;5042643;28;20203;-76
2023/05/15 05:57:39;;;;;;;92.72;52.72;;;13.50;99.90;;;;;;5030219;28;20226;-77
2023/05/15 06:00:09;;;;;;;96.63;53.42;;;13.70;99.90;;;;;;5032425;28;20199;-76
2023/05/15 06:02:42;;;;;;;90.97;50.47;;;13.70;99.90;;;;;;5032480;28;20203;-76
2023/05/15 06:05:10;;;;;;;91.07;52.65;;;13.50;99.90;;;;;;5026697;28;20206;-76
2023/05/15 06:07:40;;;;;;;92.50;51.33;;;13.60;99.90;;;;;;5033955;28;20229;-76
2023/05/15 06:10:11;;;;;;;84.40;49.83;;;13.50;99.90;;;;;;5032870;28;20190;-76
2023/05/15 06:12:42;;;;;;;82.57;47.55;;;13.90;99.90;;;;;;5047590;28;20203;-76
2023/05/15 06:15:10;;;;;;;86.25;49.83;;;14.00;99.90;;;;;;5032332;28;20214;-76
2023/05/15 06:17:38;;;;;;;84.88;49.35;;;14.00;99.90;;;;;;5028338;28;20223;-76
2023/05/15 06:20:07;;;;;;;82.13;47.70;;;14.00;99.90;;;;;;5046136;28;20195;-76
2023/05/15 06:22:35;;;;;;;80.03;49.05;;;14.00;99.90;;;;;;5037432;28;20198;-76
2023/05/15 06:25:06;;;;;;;79.63;50.42;;;13.90;99.90;;;;;;5036626;28;20211;-76
2023/05/15 06:27:34;;;;;;;79.68;48.80;;;13.70;99.90;;;;;;5035449;28;20222;-76
2023/05/15 06:30:02;;;;;;;73.22;46.80;;;13.70;99.90;;;;;;5031651;28;20215;-76
2023/05/15 06:32:29;;;;;;;77.72;49.40;;;13.80;99.90;;;;;;5034647;28;20199;-76
2023/05/15 06:34:57;;;;;;;71.68;46.40;;;13.80;99.90;;;;;;5029798;28;20215;-76
2023/05/15 06:37:24;;;;;;;78.32;48.22;;;13.90;99.90;;;;;;5034340;28;20219;-76
2023/05/15 06:39:52;;;;;;;82.47;49.28;;;14.00;99.90;;;;;;5031273;28;20194;-75
2023/05/15 06:42:21;;;;;;;78.22;49.22;;;14.00;99.90;;;;;;5042799;28;20210;-76
2023/05/15 06:44:48;;;;;;;70.53;47.40;;;13.90;99.90;;;;;;5034770;28;20191;-75
2023/05/15 06:47:16;;;;;;;72.78;46.55;;;14.00;99.90;;;;;;5041209;28;20227;-76
2023/05/15 06:49:43;;;;;;;73.22;46.47;;;14.00;99.90;;;;;;5042253;28;20222;-76
2023/05/15 06:52:11;;;;;;;66.22;44.92;;;14.10;99.90;;;;;;5042266;28;20830;-77
2023/05/15 06:54:39;;;;;;;71.18;48.05;;;14.20;99.90;;;;;;5035307;28;20218;-76
2023/05/15 06:57:07;;;;;;;68.53;48.88;;;14.00;99.90;;;;;;5035072;28;20219;-76
2023/05/15 06:59:36;;;;;;;70.80;48.53;;;13.90;99.90;;;;;;5033984;28;20203;-76
2023/05/15 07:02:03;;;;;;;67.47;46.95;;;13.90;99.90;;;;;;5034500;28;20199;-76
2023/05/15 07:04:39;;;;;;;68.53;47.17;;;14.10;99.90;;;;;;5032769;28;20203;-76
2023/05/15 07:07:08;;;;;;;73.28;48.92;;;14.10;99.90;;;;;;5033494;28;20219;-76
2023/05/15 07:09:35;;;;;;;70.25;47.92;;;14.20;99.90;;;;;;5031381;28;20208;-76
2023/05/15 07:12:03;;;;;;;62.25;46.47;;;14.20;99.90;;;;;;5032254;28;20210;-76
2023/05/15 07:14:31;;;;;;;72.93;49.10;;;14.30;99.90;;;;;;5031275;28;20210;-76
2023/05/15 07:17:00;;;;;;;63.95;46.95;;;14.10;99.90;;;;;;5027996;28;20538;-76
2023/05/15 07:19:27;;;;;;;63.45;47.08;;;14.20;99.90;;;;;;5031342;28;20210;-75
2023/05/15 07:21:55;;;;;;;68.50;48.10;;;14.20;99.90;;;;;;5023301;28;20203;-75
2023/05/15 07:24:22;;;;;;;74.45;50.70;;;14.30;99.90;;;;;;5029806;28;20206;-75
2023/05/15 07:26:50;;;;;;;70.57;49.85;;;14.10;99.90;;;;;;5031604;28;20211;-76
2023/05/15 07:29:18;;;;;;;70.22;48.42;;;14.00;99.90;;;;;;5029771;28;20195;-75
2023/05/15 07:31:45;;;;;;;67.68;45.90;;;13.90;99.90;;;;;;5026002;28;20207;-76
2023/05/15 07:34:14;;;;;;;72.25;45.83;;;14.00;99.90;;;;;;5028162;28;20206;-74
2023/05/15 07:36:42;;;;;;;68.82;44.88;;;14.00;99.90;;;;;;5027228;28;20554;-76
2023/05/15 07:39:09;;;;;;;69.20;45.35;;;14.00;99.90;;;;;;5026679;28;20564;-78
2023/05/15 07:41:42;;;;;;;66.07;43.13;;;14.20;99.90;;;;;;5030082;28;20206;-77
2023/05/15 07:44:10;;;;;;;62.78;43.72;;;14.30;99.90;;;;;;5030620;28;20204;-78
2023/05/15 07:46:38;;;;;;;60.15;42.25;;;14.40;99.90;;;;;;5028610;28;20231;-77
2023/05/15 07:49:10;;;;;;;58.28;39.72;;;14.60;99.90;;;;;;5028942;28;20203;-76
2023/05/15 07:51:39;;;;;;;52.90;38.05;;;14.50;99.90;;;;;;5030764;28;20199;-76
2023/05/15 07:54:07;;;;;;;53.83;38.78;;;14.50;99.90;;;;;;5054908;28;20215;-76
2023/05/15 07:56:34;;;;;;;47.60;34.58;;;14.40;99.90;;;;;;5035346;28;20227;-76
2023/05/15 07:59:03;;;;;;;46.63;35.75;;;14.60;99.90;;;;;;5028713;28;20221;-76
2023/05/15 08:01:31;;;;;;;43.40;34.20;;;14.60;99.90;;;;;;5032852;28;20219;-76
2023/05/15 08:03:59;;;;;;;40.25;32.28;;;14.60;99.90;;;;;;5036355;28;20199;-76
2023/05/15 08:06:26;;;;;;;37.95;31.33;;;14.90;99.90;;;;;;5038685;28;20580;-76
2023/05/15 08:08:58;;;;;;;34.38;28.95;;;15.00;99.90;;;;;;5036459;28;20203;-76
2023/05/15 08:11:37;;;;;;;38.45;29.05;;;15.20;99.90;;;;;;5034041;28;20549;-76
2023/05/15 08:14:04;;;;;;;36.30;27.95;;;15.20;99.90;;;;;;5042024;28;20211;-76
2023/05/15 08:16:32;;;;;;;34.72;28.70;;;15.60;99.90;;;;;;5038043;28;20215;-76
2023/05/15 08:19:02;;;;;;;35.72;27.95;;;15.50;99.90;;;;;;5025001;28;20653;-76
2023/05/15 08:21:29;;;;;;;36.08;28.65;;;15.40;99.90;;;;;;5029636;28;20207;-76
2023/05/15 08:24:00;;;;;;;31.15;26.92;;;15.50;99.90;;;;;;5038370;28;20206;-76
2023/05/15 08:26:27;;;;;;;37.20;29.00;;;15.50;99.90;;;;;;5037182;28;20215;-76
2023/05/15 08:28:55;;;;;;;36.13;27.30;;;15.50;99.90;;;;;;5038755;28;20191;-76
2023/05/15 08:31:40;;;;;;;33.55;26.35;;;15.60;99.90;;;;;;5036533;28;20206;-76
2023/05/15 08:34:07;;;;;;;32.45;25.35;;;15.70;99.90;;;;;;5037284;28;20566;-76
2023/05/15 08:36:34;;;;;;;31.13;24.17;;;15.80;99.90;;;;;;5034911;28;20227;-76
2023/05/15 08:39:03;;;;;;;28.90;23.63;;;15.80;99.90;;;;;;5033577;28;20210;-76
2023/05/15 08:41:37;;;;;;;24.05;20.25;;;16.00;99.90;;;;;;5032869;28;20207;-76
2023/05/15 08:44:05;;;;;;;24.08;19.27;;;16.00;99.90;;;;;;5032605;28;20226;-76
2023/05/15 08:46:35;;;;;;;21.98;18.35;;;15.90;99.90;;;;;;5035438;28;20251;-76
2023/05/15 08:49:09;;;;;;;19.95;17.90;;;15.90;99.90;;;;;;5036360;28;20203;-76
2023/05/15 08:51:36;;;;;;;20.50;17.50;;;15.80;99.90;;;;;;5033325;28;20198;-77
2023/05/15 08:54:06;;;;;;;20.05;17.45;;;16.10;99.90;;;;;;5047205;28;20204;-76
2023/05/15 08:56:33;;;;;;;21.45;16.65;;;16.20;99.90;;;;;;5030787;28;20226;-75
2023/05/15 08:59:01;;;;;;;22.20;17.85;;;16.30;99.90;;;;;;5026342;28;20226;-75
2023/05/15 09:01:30;;;;;;;20.27;18.05;;;16.10;99.90;;;;;;5030697;28;20203;-76
2023/05/15 09:03:58;;;;;;;20.58;18.35;;;16.00;99.90;;;;;;5032470;28;20704;-75
2023/05/15 09:06:26;;;;;;;22.60;17.38;;;15.90;99.90;;;;;;5033633;28;20703;-75
2023/05/15 09:08:56;;;;;;;19.90;16.25;;;16.00;99.90;;;;;;5031994;28;20202;-75
2023/05/15 09:11:26;;;;;;;18.08;16.02;;;16.10;99.90;;;;;;5033940;28;21152;-76
2023/05/15 09:13:58;;;;;;;20.30;16.30;;;16.10;99.90;;;;;;5031633;28;20210;-76
2023/05/15 09:16:25;;;;;;;21.10;18.02;;;16.10;99.90;;;;;;5036794;28;20249;-76
2023/05/15 09:18:55;;;;;;;22.73;17.58;;;16.00;99.90;;;;;;5031497;28;20228;-77
2023/05/15 09:22:15;;;;;;;;;;;;;;;;;;;;;
2023/05/15 09:24:47;;;;;;;19.70;16.90;;;16.20;99.90;;;;;;4962714;28;20232;-77
2023/05/15 09:27:21;;;;;;;19.52;17.15;;;16.20;99.90;;;;;;5029297;28;20218;-77
2023/05/15 09:29:53;;;;;;;18.80;16.10;;;16.50;99.90;;;;;;5031932;28;20208;-78
2023/05/15 09:32:20;;;;;;;20.30;16.58;;;16.60;99.90;;;;;;5047153;28;20684;-77
2023/05/15 09:34:48;;;;;;;18.25;15.98;;;16.90;99.90;;;;;;5029934;28;20210;-77
2023/05/15 09:37:28;;;;;;;17.85;15.60;;;16.90;99.90;;;;;;5025761;28;20218;-75
2023/05/15 09:40:09;;;;;;;19.73;16.42;;;17.10;99.90;;;;;;5024278;28;20209;-76
2023/05/15 09:42:37;;;;;;;19.00;16.20;;;17.10;99.90;;;;;;5029660;28;20194;-75
2023/05/15 09:45:05;;;;;;;18.88;16.30;;;17.10;99.90;;;;;;5026748;28;20205;-75
2023/05/15 09:47:34;;;;;;;19.75;16.75;;;17.10;99.90;;;;;;5027054;28;20227;-75
2023/05/15 09:50:01;;;;;;;19.30;15.63;;;17.20;99.90;;;;;;5028271;28;20672;-76
2023/05/15 09:52:29;;;;;;;18.70;16.35;;;17.20;99.90;;;;;;5028798;28;20199;-75
2023/05/15 09:54:58;;;;;;;18.33;16.20;;;17.20;99.90;;;;;;5028074;28;20214;-75
2023/05/15 09:57:26;;;;;;;17.52;15.40;;;17.40;99.90;;;;;;5030434;28;20218;-75
2023/05/15 09:59:54;;;;;;;16.73;14.90;;;17.40;99.90;;;;;;5028318;28;20205;-76
2023/05/15 10:02:34;;;;;;;17.30;14.93;;;17.50;99.90;;;;;;5031230;28;20186;-75
2023/05/15 10:05:01;;;;;;;18.10;16.05;;;17.60;99.90;;;;;;5032381;28;20211;-75
2023/05/15 10:07:29;;;;;;;17.42;15.70;;;17.70;99.90;;;;;;5030278;28;20222;-76
2023/05/15 10:09:58;;;;;;;18.13;16.17;;;17.60;99.90;;;;;;5030884;28;20201;-74
2023/05/15 10:12:28;;;;;;;17.58;15.30;;;17.60;99.90;;;;;;5032794;28;20670;-75
2023/05/15 10:14:57;;;;;;;17.10;15.25;;;17.50;99.90;;;;;;5031982;28;20214;-74
2023/05/15 10:17:25;;;;;;;15.63;13.88;;;17.80;99.90;;;;;;5033086;28;20223;-75
2023/05/15 10:19:52;;;;;;;16.95;14.82;;;17.90;99.90;;;;;;5032116;28;20202;-75
2023/05/15 10:22:23;;;;;;;19.73;14.80;;;17.90;99.90;;;;;;5031094;28;20206;-75
2023/05/15 10:24:58;;;;;;;20.23;16.00;;;17.90;99.90;;;;;;5044905;28;20210;-75
2023/05/15 10:27:27;;;;;;;19.50;16.02;;;17.80;99.90;;;;;;5030241;28;20218;-77
2023/05/15 10:29:57;;;;;;;17.63;14.50;;;18.00;99.90;;;;;;5027726;28;20198;-77
2023/05/15 10:32:26;;;;;;;15.80;14.20;;;17.80;99.90;;;;;;5044372;28;20196;-77
2023/05/15 10:34:57;;;;;;;16.08;13.65;;;18.00;99.90;;;;;;5029313;28;20195;-75
2023/05/15 10:37:26;;;;;;;16.23;13.45;;;18.20;99.90;;;;;;5030749;28;20444;-76
2023/05/15 10:39:55;;;;;;;15.60;12.77;;;18.10;99.90;;;;;;5027393;28;20225;-76
2023/05/15 10:42:25;;;;;;;15.25;13.48;;;18.30;99.90;;;;;;5030906;28;20211;-76
2023/05/15 10:44:58;;;;;;;17.42;14.43;;;18.40;99.90;;;;;;5029759;28;20203;-76
2023/05/15 10:47:26;;;;;;;15.80;13.13;;;18.50;99.90;;;;;;5031602;28;20590;-75
2023/05/15 10:50:13;;;;;;;13.38;12.07;;;18.40;99.90;;;;;;5025369;28;20665;-77
2023/05/15 10:52:41;;;;;;;13.15;11.55;;;18.50;99.90;;;;;;5034229;28;20683;-76
2023/05/15 10:55:13;;;;;;;15.02;12.48;;;18.60;99.90;;;;;;5032613;28;20203;-76
2023/05/15 10:57:40;;;;;;;14.40;12.20;;;18.90;99.90;;;;;;5028406;28;20214;-76
2023/05/15 11:00:27;;;;;;;10.68;9.57;;;18.90;99.90;;;;;;5033868;28;20203;-75
2023/05/15 11:02:55;;;;;;;12.10;10.98;;;18.90;99.20;;;;;;5034373;28;20210;-76
2023/05/15 11:05:23;;;;;;;14.43;12.70;;;18.80;99.50;;;;;;5032825;28;20206;-76
2023/05/15 11:08:28;;;;;;;13.65;11.55;;;18.90;99.90;;;;;;5024342;28;20723;-76
2023/05/15 11:10:56;;;;;;;12.88;11.57;;;19.30;99.90;;;;;;5030209;28;20202;-76
2023/05/15 11:13:23;;;;;;;14.00;10.02;;;19.00;98.30;;;;;;5024503;28;20210;-76
2023/05/15 11:15:52;;;;;;;12.20;10.88;;;19.20;98.80;;;;;;5022190;28;20203;-76
2023/05/15 11:18:20;;;;;;;11.10;9.95;;;19.00;97.40;;;;;;5030876;28;20219;-76
2023/05/15 11:21:09;;;;;;;11.93;10.80;;;19.20;97.50;;;;;;5044824;28;20206;-76
2023/05/15 11:23:41;;;;;;;15.68;11.13;;;19.30;96.60;;;;;;5028915;28;20191;-75
2023/05/15 11:26:08;;;;;;;10.57;9.57;;;19.20;97.50;;;;;;5031198;28;20229;-75
2023/05/15 11:28:46;;;;;;;11.23;9.80;;;19.30;97.10;;;;;;5031543;28;20187;-76
2023/05/15 11:31:17;;;;;;;11.48;10.35;;;19.50;96.60;;;;;;5024821;28;20202;-76
2023/05/15 11:33:50;;;;;;;9.70;8.75;;;19.60;95.90;;;;;;5028431;28;20199;-76
2023/05/15 11:36:26;;;;;;;10.45;8.88;;;19.70;95.80;;;;;;5016965;28;20222;-76
2023/05/15 11:38:53;;;;;;;11.77;9.98;;;19.80;94.80;;;;;;5023880;28;20218;-76
2023/05/15 11:41:26;;;;;;;9.65;8.40;;;19.80;94.40;;;;;;5027299;28;20194;-76
2023/05/15 11:43:56;;;;;;;10.07;8.35;;;20.10;93.60;;;;;;5028828;28;20214;-76
2023/05/15 11:46:25;;;;;;;9.65;8.23;;;20.20;93.30;;;;;;5026660;28;20234;-76
2023/05/15 11:48:54;;;;;;;9.70;8.77;;;20.20;93.80;;;;;;5030759;28;20187;-76
2023/05/15 11:51:24;;;;;;;11.52;8.60;;;20.20;93.50;;;;;;5024999;28;20199;-76
2023/05/15 11:53:52;;;;;;;9.20;8.27;;;20.20;93.20;;;;;;5026357;28;20200;-76
2023/05/15 11:56:21;;;;;;;9.43;8.38;;;20.10;92.10;;;;;;5031173;28;20715;-76
2023/05/15 11:58:49;;;;;;;9.57;8.68;;;20.20;92.70;;;;;;5031195;28;20215;-76
2023/05/15 12:01:17;;;;;;;9.75;8.75;;;20.00;91.70;;;;;;5029093;28;20195;-76
2023/05/15 12:03:47;;;;;;;8.40;7.70;;;20.20;92.50;;;;;;5030973;28;20207;-76
2023/05/15 12:06:24;;;;;;;9.90;8.98;;;20.40;92.00;;;;;;5023923;28;20211;-76
2023/05/15 12:08:52;;;;;;;10.57;9.50;;;20.30;91.90;;;;;;5030628;28;20515;-77
2023/05/15 12:11:23;;;;;;;9.60;8.57;;;20.50;92.90;;;;;;5031052;28;20194;-77
2023/05/15 12:13:52;;;;;;;8.02;6.68;;;20.50;92.10;;;;;;5018705;28;20210;-77
2023/05/15 12:16:52;;;;;;;8.52;6.95;;;20.50;87.90;;;;;;5031246;28;20214;-77
2023/05/15 12:19:27;;;;;;;11.73;7.28;;;20.80;89.40;;;;;;5027124;28;20203;-77
2023/05/15 12:21:55;;;;;;;8.00;7.20;;;20.70;88.10;;;;;;5025754;28;20198;-77
2023/05/15 12:24:23;;;;;;;8.30;7.50;;;20.70;87.80;;;;;;5031327;28;20199;-77
2023/05/15 12:26:50;;;;;;;7.78;7.07;;;20.80;88.30;;;;;;5029254;28;20219;-78
2023/05/15 12:29:18;;;;;;;8.95;6.97;;;20.60;86.00;;;;;;5029665;28;20549;-78
2023/05/15 12:31:46;;;;;;;7.93;5.97;;;20.70;85.00;;;;;;5030219;28;20195;-78
2023/05/15 12:34:14;;;;;;;8.15;7.00;;;21.00;83.50;;;;;;5028557;28;20206;-78
2023/05/15 12:36:43;;;;;;;6.65;6.05;;;21.00;84.60;;;;;;5031891;28;20223;-77
2023/05/15 12:39:11;;;;;;;6.82;6.22;;;20.80;79.10;;;;;;5028734;28;20214;-77
2023/05/15 12:41:39;;;;;;;6.90;6.20;;;20.60;83.60;;;;;;5028927;28;20190;-77
2023/05/15 12:44:06;;;;;;;8.07;6.78;;;20.70;84.60;;;;;;5031911;28;20202;-77